Campbell Foss — WDC7754 — position and weather

sailwx.info

Track history (hours):
 
Tides and Currents Weather Stations Pressure Air Temp Water Temp Dewpoint Dewpoint Depression Visibility Wind Speed Wind Dir Waves Ship Positions

Campbell Foss

Owner: Foss Maritime Co., Seattle, WA. More information available from US FCC via Universal Licensing System and Coast Guard Vessel Documentation Center.

Last reported at 2016-Feb-06 20:32 UTC. Time now 2016-Feb-06 20:39 UTC.
Position N 33°46' W 118°13'.

Length 23 m; draft 16 m.

Type: Tug. MMSI: 367076360.

Date/timePositionNaut miles runAvg speedWind from/ knotsBaromVisibWave heightAir tempDewpointWater temp
2016-Feb-06 20:32N 33°46' W 118°13'0 0.0
2016-Feb-06 19:33N 33°46' W 118°13'0 0.0
2016-Feb-06 18:24N 33°46' W 118°13'0 0.5
2016-Feb-06 17:33N 33°46' W 118°13'1 0.6
2016-Feb-06 16:33N 33°46' W 118°13'1 1.0
2016-Feb-06 15:33N 33°45' W 118°12'3 1.5
2016-Feb-06 13:18N 33°45' W 118°17'1 0.9
2016-Feb-06 12:28N 33°46' W 118°16'0 0.4
2016-Feb-06 11:33N 33°46' W 118°15'2 1.8
2016-Feb-06 10:33N 33°46' W 118°13'0 0.0
2016-Feb-06 09:33N 33°46' W 118°13'0 0.0
2016-Feb-06 08:33N 33°46' W 118°13'0 0.0
2016-Feb-06 07:27N 33°46' W 118°13'0 0.0
2016-Feb-06 06:33N 33°46' W 118°13'0 0.0
2016-Feb-06 05:34N 33°46' W 118°13'0 0.0
2016-Feb-06 04:33N 33°46' W 118°13'0 0.0
2016-Feb-06 03:33N 33°46' W 118°13'0 0.4
2016-Feb-06 02:33N 33°45' W 118°13'1 0.3
2016-Feb-05 23:33N 33°46' W 118°13'0 0.2
2016-Feb-05 22:14N 33°46' W 118°13'0 0.0
2016-Feb-05 21:31N 33°46' W 118°13'0 0.0
2016-Feb-05 20:32N 33°46' W 118°13'0 0.0
2016-Feb-05 19:32N 33°46' W 118°13'0 0.0
2016-Feb-05 18:29N 33°46' W 118°13'1 0.7
2016-Feb-05 17:33N 33°46' W 118°13'0 0.0
2016-Feb-05 16:21N 33°46' W 118°13'2 0.6
2016-Feb-05 12:33N 33°45' W 118°16'2 1.2
2016-Feb-05 10:33N 33°46' W 118°13'0 0.1
2016-Feb-05 09:34N 33°46' W 118°13'0 0.0
2016-Feb-05 08:33N 33°46' W 118°13'0 0.0
2016-Feb-05 07:33N 33°46' W 118°13'0 0.0
2016-Feb-05 06:33N 33°46' W 118°13'0 0.0
2016-Feb-05 05:32N 33°46' W 118°13'0 0.0
2016-Feb-05 04:32N 33°46' W 118°13'3 3.0
2016-Feb-05 03:33N 33°44' W 118°16'0 0.5
2016-Feb-05 02:33N 33°44' W 118°15'2 1.6
2016-Feb-05 01:29N 33°45' W 118°17'2 1.2
2016-Feb-04 23:27N 33°44' W 118°14'0 0.0
2016-Feb-04 22:33N 33°44' W 118°14'1 0.8
2016-Feb-04 21:33N 33°45' W 118°13'1 1.3
2016-Feb-04 20:33N 33°46' W 118°13'0 0.4
2016-Feb-04 19:33N 33°46' W 118°13'0 0.0
2016-Feb-04 18:33N 33°46' W 118°13'0 0.0
2016-Feb-04 17:33N 33°46' W 118°13'0 0.0
2016-Feb-04 16:33N 33°46' W 118°13'0 0.0
2016-Feb-04 15:33N 33°46' W 118°13'1 0.6
2016-Feb-04 14:33N 33°46' W 118°13'2 1.6
2016-Feb-04 13:26N 33°44' W 118°13'3 1.4
2016-Feb-04 11:31N 33°44' W 118°16'3 2.4
2016-Feb-04 10:27N 33°45' W 118°13'1 0.8
2016-Feb-04 09:33N 33°46' W 118°13'0 0.0
2016-Feb-04 08:33N 33°46' W 118°13'0 0.0
2016-Feb-04 07:33N 33°46' W 118°13'0 0.0
2016-Feb-04 06:30N 33°46' W 118°13'1 1.2
2016-Feb-04 05:33N 33°46' W 118°15'2 0.5
2016-Feb-04 01:32N 33°45' W 118°16'1 1.5
2016-Feb-04 00:33N 33°43' W 118°16'1 1.2
2016-Feb-03 23:19N 33°43' W 118°14'2 2.6
2016-Feb-03 22:32N 33°45' W 118°13'1 1.2
2016-Feb-03 21:33N 33°46' W 118°13'0 0.0
2016-Feb-03 20:33N 33°46' W 118°13'0 0.0
2016-Feb-03 19:33N 33°46' W 118°13'0 0.0
2016-Feb-03 18:33N 33°46' W 118°13'3 2.9
2016-Feb-03 17:22N 33°44' W 118°16'2 1.7
2016-Feb-03 16:19N 33°46' W 118°16'0 0.3
2016-Feb-03 15:16N 33°46' W 118°16'1 0.4
2016-Feb-03 13:31N 33°46' W 118°17'1 0.6
2016-Feb-03 12:24N 33°45' W 118°16'4 0.9
2016-Feb-03 08:20N 33°44' W 118°12'2 2.4
2016-Feb-03 07:32N 33°46' W 118°13'1 1.0
2016-Feb-03 06:23N 33°45' W 118°12'0 0.1
2016-Feb-03 05:32N 33°45' W 118°13'3 2.8
2016-Feb-03 04:33N 33°46' W 118°16'1 0.6
2016-Feb-03 03:03N 33°45' W 118°16'1 2.5
2016-Feb-03 02:33N 33°46' W 118°15'2 1.8
2016-Feb-03 01:33N 33°46' W 118°13'0 0.0
2016-Feb-03 00:33N 33°46' W 118°13'0 0.0
2016-Feb-02 23:33N 33°46' W 118°13'0 0.0
2016-Feb-02 22:33N 33°46' W 118°13'0 0.0
2016-Feb-02 21:33N 33°46' W 118°13'0 0.0
2016-Feb-02 20:31N 33°46' W 118°13'1 0.5
2016-Feb-02 19:33N 33°46' W 118°13'2 0.9
2016-Feb-02 17:26N 33°44' W 118°12'2 2.0
2016-Feb-02 16:33N 33°45' W 118°10'0 0.0
2016-Feb-02 15:19N 33°44' W 118°10'5 4.6
2016-Feb-02 14:12N 33°45' W 118°16'0 0.3
2016-Feb-02 13:31N 33°45' W 118°17'3 1.0
2016-Feb-02 10:32N 33°44' W 118°13'1 1.5
2016-Feb-02 09:32N 33°46' W 118°13'0 0.0
2016-Feb-02 08:33N 33°46' W 118°13'0 0.0
2016-Feb-02 07:33N 33°46' W 118°13'1 0.9
2016-Feb-02 06:27N 33°45' W 118°12'0 0.5
2016-Feb-02 05:32N 33°44' W 118°13'1 1.3
2016-Feb-02 04:33N 33°46' W 118°13'0 0.1
2016-Feb-02 03:33N 33°46' W 118°13'0 0.0
2016-Feb-02 02:33N 33°46' W 118°13'1 1.5
2016-Feb-02 01:33N 33°46' W 118°15'1 0.2
2016-Feb-01 22:33N 33°46' W 118°16'2 2.0
2016-Feb-01 21:33N 33°46' W 118°13'0 0.0
2016-Feb-01 20:33N 33°46' W 118°13'0 0.0
2016-Feb-01 19:33N 33°46' W 118°13'0 0.0
2016-Feb-01 18:33N 33°46' W 118°13'0 0.0
2016-Feb-01 17:33N 33°46' W 118°13'0 0.0
2016-Feb-01 16:28N 33°46' W 118°13'0 0.0
2016-Feb-01 15:33N 33°46' W 118°13'3 1.7
2016-Feb-01 13:33N 33°43' W 118°11'3 3.0
2016-Feb-01 12:33N 33°45' W 118°13'1 0.9
2016-Feb-01 11:28N 33°45' W 118°12'1 1.0
2016-Feb-01 10:33N 33°45' W 118°13'0 0.5
2016-Feb-01 09:33N 33°46' W 118°13'0 0.0
2016-Feb-01 08:33N 33°46' W 118°13'0 0.0
2016-Feb-01 07:33N 33°46' W 118°13'1 1.0
2016-Feb-01 06:33N 33°46' W 118°14'2 2.1
2016-Feb-01 05:33N 33°45' W 118°17'0 0.1
2016-Feb-01 04:33N 33°45' W 118°17'0 0.0
2016-Feb-01 02:10N 33°45' W 118°17'0 0.0
2016-Feb-01 01:07N 33°45' W 118°17'0 0.0
2016-Feb-01 00:27N 33°45' W 118°17'0 0.0
2016-Jan-31 22:17N 33°45' W 118°17'3 3.6
2016-Jan-31 21:29N 33°46' W 118°13'0 0.0
2016-Jan-31 20:26N 33°46' W 118°13'0 0.0
2016-Jan-31 18:13N 33°46' W 118°13'0 0.0
2016-Jan-31 17:33N 33°46' W 118°13'0 0.0
2016-Jan-31 16:33N 33°46' W 118°13'0 0.0
2016-Jan-31 15:33N 33°46' W 118°13'0 0.0
2016-Jan-31 14:33N 33°46' W 118°13'0 0.0
2016-Jan-31 13:33N 33°46' W 118°13'3 2.6
2016-Jan-31 12:31N 33°45' W 118°16'1 0.6
2016-Jan-31 11:29N 33°45' W 118°16'2 2.3
2016-Jan-31 10:33N 33°46' W 118°13'0 0.0
2016-Jan-31 09:33N 33°46' W 118°13'0 0.0
2016-Jan-31 08:33N 33°46' W 118°13'0 0.0
2016-Jan-31 07:33N 33°46' W 118°13'0 0.0
2016-Jan-31 06:33N 33°46' W 118°13'0 0.0
2016-Jan-31 05:33N 33°46' W 118°13'0 0.0
2016-Jan-31 04:33N 33°46' W 118°13'0 0.0
2016-Jan-31 03:33N 33°46' W 118°13'0 0.0
2016-Jan-31 02:33N 33°46' W 118°13'2 2.3
2016-Jan-31 01:33N 33°44' W 118°11'1 0.6
2016-Jan-31 00:19N 33°45' W 118°12'0 0.0
2016-Jan-30 23:33N 33°45' W 118°12'1 0.5
2016-Jan-30 22:27N 33°44' W 118°12'0 0.5
2016-Jan-30 21:33N 33°45' W 118°12'2 1.3
2016-Jan-30 20:25N 33°46' W 118°13'0 0.0
2016-Jan-30 18:33N 33°46' W 118°13'0 0.0
2016-Jan-30 15:33N 33°46' W 118°13'1 0.5
2016-Jan-30 12:33N 33°44' W 118°13'1 0.6
2016-Jan-30 11:21N 33°44' W 118°14'2 0.6
2016-Jan-30 08:26N 33°44' W 118°12'2 2.5
2016-Jan-30 07:33N 33°46' W 118°13'0 0.0
2016-Jan-30 06:32N 33°46' W 118°13'0 0.0
2016-Jan-30 05:33N 33°46' W 118°13'2 2.0
2016-Jan-30 04:33N 33°46' W 118°16'0 0.0
2016-Jan-30 01:08N 33°46' W 118°16'6 3.7
2016-Jan-29 23:31N 33°44' W 118°09'4 4.7
2016-Jan-29 22:33N 33°45' W 118°14'1 0.5
2016-Jan-29 21:08N 33°45' W 118°13'1 0.8
2016-Jan-29 20:26N 33°46' W 118°13'3 3.9
2016-Jan-29 19:32N 33°43' W 118°16'3 1.5
2016-Jan-29 17:33N 33°45' W 118°13'1 1.2
2016-Jan-29 16:31N 33°46' W 118°13'0 0.0
2016-Jan-29 15:33N 33°46' W 118°13'0 0.0
2016-Jan-29 14:33N 33°46' W 118°13'0 0.0
2016-Jan-29 13:33N 33°46' W 118°13'0 0.0
2016-Jan-29 12:33N 33°46' W 118°13'0 0.0
2016-Jan-29 11:33N 33°46' W 118°13'0 0.0
2016-Jan-29 10:33N 33°46' W 118°13'0 0.0
2016-Jan-29 09:33N 33°46' W 118°13'0 0.0
2016-Jan-29 08:33N 33°46' W 118°13'0 0.0
2016-Jan-29 07:33N 33°46' W 118°13'1 1.1
2016-Jan-29 06:33N 33°45' W 118°13'0 0.3
2016-Jan-29 05:33N 33°45' W 118°13'1 0.6
2016-Jan-29 04:33N 33°45' W 118°12'0 0.0
2016-Jan-29 03:33N 33°45' W 118°12'0 0.4
2016-Jan-29 02:33N 33°45' W 118°12'8 7.7
2016-Jan-29 01:32N 33°42' W 118°21'11 8.7
2016-Jan-29 00:14N 33°52' W 118°27'3 4.1
2016-Jan-28 23:33N 33°55' W 118°27'0 0.2
2016-Jan-28 22:32N 33°54' W 118°27'5 4.8
2016-Jan-28 21:33N 33°51' W 118°24'5 4.0
2016-Jan-28 20:20N 33°55' W 118°27'0 0.0
2016-Jan-28 19:33N 33°55' W 118°27'0 0.0
2016-Jan-28 18:33N 33°55' W 118°27'0 0.0
2016-Jan-28 17:29N 33°55' W 118°27'0 0.0
2016-Jan-28 16:28N 33°55' W 118°27'0 0.0
2016-Jan-28 09:30N 33°55' W 118°27'5 5.2
2016-Jan-28 08:33N 33°50' W 118°24'5 3.8
2016-Jan-28 07:19N 33°54' W 118°27'0 0.2
2016-Jan-28 05:33N 33°55' W 118°27'0 0.0
2016-Jan-28 04:33N 33°55' W 118°27'0 0.0
2016-Jan-28 01:15N 33°55' W 118°27'0 0.0
2016-Jan-28 00:33N 33°55' W 118°27'0 0.0
2016-Jan-27 23:32N 33°55' W 118°27'0 0.0
2016-Jan-27 22:31N 33°55' W 118°27'0 0.0
2016-Jan-27 21:33N 33°55' W 118°27'  
Track history (hours):
 
Tides and Currents Weather Stations Pressure Air Temp Water Temp Dewpoint Dewpoint Depression Visibility Wind Speed Wind Dir Waves Ship Positions

Campbell Foss

Owner: Foss Maritime Co., Seattle, WA. More information available from US FCC via Universal Licensing System and Coast Guard Vessel Documentation Center.

Last reported at 2016-Feb-06 20:32 UTC. Time now 2016-Feb-06 20:39 UTC.
Position N 33°46' W 118°13'.

Length 23 m; draft 16 m.

Type: Tug. MMSI: 367076360.

Date/timePositionNaut miles runAvg speedWind from/ knotsBaromVisibWave heightAir tempDewpointWater temp
2016-Feb-06 20:32N 33°46' W 118°13'0 0.0
2016-Feb-06 19:33N 33°46' W 118°13'0 0.0
2016-Feb-06 18:24N 33°46' W 118°13'0 0.5
2016-Feb-06 17:33N 33°46' W 118°13'1 0.6
2016-Feb-06 16:33N 33°46' W 118°13'1 1.0
2016-Feb-06 15:33N 33°45' W 118°12'3 1.5
2016-Feb-06 13:18N 33°45' W 118°17'1 0.9
2016-Feb-06 12:28N 33°46' W 118°16'0 0.4
2016-Feb-06 11:33N 33°46' W 118°15'2 1.8
2016-Feb-06 10:33N 33°46' W 118°13'0 0.0
2016-Feb-06 09:33N 33°46' W 118°13'0 0.0
2016-Feb-06 08:33N 33°46' W 118°13'0 0.0
2016-Feb-06 07:27N 33°46' W 118°13'0 0.0
2016-Feb-06 06:33N 33°46' W 118°13'0 0.0
2016-Feb-06 05:34N 33°46' W 118°13'0 0.0
2016-Feb-06 04:33N 33°46' W 118°13'0 0.0
2016-Feb-06 03:33N 33°46' W 118°13'0 0.4
2016-Feb-06 02:33N 33°45' W 118°13'1 0.3
2016-Feb-05 23:33N 33°46' W 118°13'0 0.2
2016-Feb-05 22:14N 33°46' W 118°13'0 0.0
2016-Feb-05 21:31N 33°46' W 118°13'0 0.0
2016-Feb-05 20:32N 33°46' W 118°13'0 0.0
2016-Feb-05 19:32N 33°46' W 118°13'0 0.0
2016-Feb-05 18:29N 33°46' W 118°13'1 0.7
2016-Feb-05 17:33N 33°46' W 118°13'0 0.0
2016-Feb-05 16:21N 33°46' W 118°13'2 0.6
2016-Feb-05 12:33N 33°45' W 118°16'2 1.2
2016-Feb-05 10:33N 33°46' W 118°13'0 0.1
2016-Feb-05 09:34N 33°46' W 118°13'0 0.0
2016-Feb-05 08:33N 33°46' W 118°13'0 0.0
2016-Feb-05 07:33N 33°46' W 118°13'0 0.0
2016-Feb-05 06:33N 33°46' W 118°13'0 0.0
2016-Feb-05 05:32N 33°46' W 118°13'0 0.0
2016-Feb-05 04:32N 33°46' W 118°13'3 3.0
2016-Feb-05 03:33N 33°44' W 118°16'0 0.5
2016-Feb-05 02:33N 33°44' W 118°15'2 1.6
2016-Feb-05 01:29N 33°45' W 118°17'2 1.2
2016-Feb-04 23:27N 33°44' W 118°14'0 0.0
2016-Feb-04 22:33N 33°44' W 118°14'1 0.8
2016-Feb-04 21:33N 33°45' W 118°13'1 1.3
2016-Feb-04 20:33N 33°46' W 118°13'0 0.4
2016-Feb-04 19:33N 33°46' W 118°13'0 0.0
2016-Feb-04 18:33N 33°46' W 118°13'0 0.0
2016-Feb-04 17:33N 33°46' W 118°13'0 0.0
2016-Feb-04 16:33N 33°46' W 118°13'0 0.0
2016-Feb-04 15:33N 33°46' W 118°13'1 0.6
2016-Feb-04 14:33N 33°46' W 118°13'2 1.6
2016-Feb-04 13:26N 33°44' W 118°13'3 1.4
2016-Feb-04 11:31N 33°44' W 118°16'3 2.4
2016-Feb-04 10:27N 33°45' W 118°13'1 0.8
2016-Feb-04 09:33N 33°46' W 118°13'0 0.0
2016-Feb-04 08:33N 33°46' W 118°13'0 0.0
2016-Feb-04 07:33N 33°46' W 118°13'0 0.0
2016-Feb-04 06:30N 33°46' W 118°13'1 1.2
2016-Feb-04 05:33N 33°46' W 118°15'2 0.5
2016-Feb-04 01:32N 33°45' W 118°16'1 1.5
2016-Feb-04 00:33N 33°43' W 118°16'1 1.2
2016-Feb-03 23:19N 33°43' W 118°14'2 2.6
2016-Feb-03 22:32N 33°45' W 118°13'1 1.2
2016-Feb-03 21:33N 33°46' W 118°13'0 0.0
2016-Feb-03 20:33N 33°46' W 118°13'0 0.0
2016-Feb-03 19:33N 33°46' W 118°13'0 0.0
2016-Feb-03 18:33N 33°46' W 118°13'3 2.9
2016-Feb-03 17:22N 33°44' W 118°16'2 1.7
2016-Feb-03 16:19N 33°46' W 118°16'0 0.3
2016-Feb-03 15:16N 33°46' W 118°16'1 0.4
2016-Feb-03 13:31N 33°46' W 118°17'1 0.6
2016-Feb-03 12:24N 33°45' W 118°16'4 0.9
2016-Feb-03 08:20N 33°44' W 118°12'2 2.4
2016-Feb-03 07:32N 33°46' W 118°13'1 1.0
2016-Feb-03 06:23N 33°45' W 118°12'0 0.1
2016-Feb-03 05:32N 33°45' W 118°13'3 2.8
2016-Feb-03 04:33N 33°46' W 118°16'1 0.6
2016-Feb-03 03:03N 33°45' W 118°16'1 2.5
2016-Feb-03 02:33N 33°46' W 118°15'2 1.8
2016-Feb-03 01:33N 33°46' W 118°13'0 0.0
2016-Feb-03 00:33N 33°46' W 118°13'0 0.0
2016-Feb-02 23:33N 33°46' W 118°13'0 0.0
2016-Feb-02 22:33N 33°46' W 118°13'0 0.0
2016-Feb-02 21:33N 33°46' W 118°13'0 0.0
2016-Feb-02 20:31N 33°46' W 118°13'1 0.5
2016-Feb-02 19:33N 33°46' W 118°13'2 0.9
2016-Feb-02 17:26N 33°44' W 118°12'2 2.0
2016-Feb-02 16:33N 33°45' W 118°10'0 0.0
2016-Feb-02 15:19N 33°44' W 118°10'5 4.6
2016-Feb-02 14:12N 33°45' W 118°16'0 0.3
2016-Feb-02 13:31N 33°45' W 118°17'3 1.0
2016-Feb-02 10:32N 33°44' W 118°13'1 1.5
2016-Feb-02 09:32N 33°46' W 118°13'0 0.0
2016-Feb-02 08:33N 33°46' W 118°13'0 0.0
2016-Feb-02 07:33N 33°46' W 118°13'1 0.9
2016-Feb-02 06:27N 33°45' W 118°12'0 0.5
2016-Feb-02 05:32N 33°44' W 118°13'1 1.3
2016-Feb-02 04:33N 33°46' W 118°13'0 0.1
2016-Feb-02 03:33N 33°46' W 118°13'0 0.0
2016-Feb-02 02:33N 33°46' W 118°13'1 1.5
2016-Feb-02 01:33N 33°46' W 118°15'1 0.2
2016-Feb-01 22:33N 33°46' W 118°16'2 2.0
2016-Feb-01 21:33N 33°46' W 118°13'0 0.0
2016-Feb-01 20:33N 33°46' W 118°13'0 0.0
2016-Feb-01 19:33N 33°46' W 118°13'0 0.0
2016-Feb-01 18:33N 33°46' W 118°13'0 0.0
2016-Feb-01 17:33N 33°46' W 118°13'0 0.0
2016-Feb-01 16:28N 33°46' W 118°13'0 0.0
2016-Feb-01 15:33N 33°46' W 118°13'3 1.7
2016-Feb-01 13:33N 33°43' W 118°11'3 3.0
2016-Feb-01 12:33N 33°45' W 118°13'1 0.9
2016-Feb-01 11:28N 33°45' W 118°12'1 1.0
2016-Feb-01 10:33N 33°45' W 118°13'0 0.5
2016-Feb-01 09:33N 33°46' W 118°13'0 0.0
2016-Feb-01 08:33N 33°46' W 118°13'0 0.0
2016-Feb-01 07:33N 33°46' W 118°13'1 1.0
2016-Feb-01 06:33N 33°46' W 118°14'2 2.1
2016-Feb-01 05:33N 33°45' W 118°17'0 0.1
2016-Feb-01 04:33N 33°45' W 118°17'0 0.0
2016-Feb-01 02:10N 33°45' W 118°17'0 0.0
2016-Feb-01 01:07N 33°45' W 118°17'0 0.0
2016-Feb-01 00:27N 33°45' W 118°17'0 0.0
2016-Jan-31 22:17N 33°45' W 118°17'3 3.6
2016-Jan-31 21:29N 33°46' W 118°13'0 0.0
2016-Jan-31 20:26N 33°46' W 118°13'0 0.0
2016-Jan-31 18:13N 33°46' W 118°13'0 0.0
2016-Jan-31 17:33N 33°46' W 118°13'0 0.0
2016-Jan-31 16:33N 33°46' W 118°13'0 0.0
2016-Jan-31 15:33N 33°46' W 118°13'0 0.0
2016-Jan-31 14:33N 33°46' W 118°13'0 0.0
2016-Jan-31 13:33N 33°46' W 118°13'3 2.6
2016-Jan-31 12:31N 33°45' W 118°16'1 0.6
2016-Jan-31 11:29N 33°45' W 118°16'2 2.3
2016-Jan-31 10:33N 33°46' W 118°13'0 0.0
2016-Jan-31 09:33N 33°46' W 118°13'0 0.0
2016-Jan-31 08:33N 33°46' W 118°13'0 0.0
2016-Jan-31 07:33N 33°46' W 118°13'0 0.0
2016-Jan-31 06:33N 33°46' W 118°13'0 0.0
2016-Jan-31 05:33N 33°46' W 118°13'0 0.0
2016-Jan-31 04:33N 33°46' W 118°13'0 0.0
2016-Jan-31 03:33N 33°46' W 118°13'0 0.0
2016-Jan-31 02:33N 33°46' W 118°13'2 2.3
2016-Jan-31 01:33N 33°44' W 118°11'1 0.6
2016-Jan-31 00:19N 33°45' W 118°12'0 0.0
2016-Jan-30 23:33N 33°45' W 118°12'1 0.5
2016-Jan-30 22:27N 33°44' W 118°12'0 0.5
2016-Jan-30 21:33N 33°45' W 118°12'2 1.3
2016-Jan-30 20:25N 33°46' W 118°13'0 0.0
2016-Jan-30 18:33N 33°46' W 118°13'0 0.0
2016-Jan-30 15:33N 33°46' W 118°13'1 0.5
2016-Jan-30 12:33N 33°44' W 118°13'1 0.6
2016-Jan-30 11:21N 33°44' W 118°14'2 0.6
2016-Jan-30 08:26N 33°44' W 118°12'2 2.5
2016-Jan-30 07:33N 33°46' W 118°13'0 0.0
2016-Jan-30 06:32N 33°46' W 118°13'0 0.0
2016-Jan-30 05:33N 33°46' W 118°13'2 2.0
2016-Jan-30 04:33N 33°46' W 118°16'0 0.0
2016-Jan-30 01:08N 33°46' W 118°16'6 3.7
2016-Jan-29 23:31N 33°44' W 118°09'4 4.7
2016-Jan-29 22:33N 33°45' W 118°14'1 0.5
2016-Jan-29 21:08N 33°45' W 118°13'1 0.8
2016-Jan-29 20:26N 33°46' W 118°13'3 3.9
2016-Jan-29 19:32N 33°43' W 118°16'3 1.5
2016-Jan-29 17:33N 33°45' W 118°13'1 1.2
2016-Jan-29 16:31N 33°46' W 118°13'0 0.0
2016-Jan-29 15:33N 33°46' W 118°13'0 0.0
2016-Jan-29 14:33N 33°46' W 118°13'0 0.0
2016-Jan-29 13:33N 33°46' W 118°13'0 0.0
2016-Jan-29 12:33N 33°46' W 118°13'0 0.0
2016-Jan-29 11:33N 33°46' W 118°13'0 0.0
2016-Jan-29 10:33N 33°46' W 118°13'0 0.0
2016-Jan-29 09:33N 33°46' W 118°13'0 0.0
2016-Jan-29 08:33N 33°46' W 118°13'0 0.0
2016-Jan-29 07:33N 33°46' W 118°13'1 1.1
2016-Jan-29 06:33N 33°45' W 118°13'0 0.3
2016-Jan-29 05:33N 33°45' W 118°13'1 0.6
2016-Jan-29 04:33N 33°45' W 118°12'0 0.0
2016-Jan-29 03:33N 33°45' W 118°12'0 0.4
2016-Jan-29 02:33N 33°45' W 118°12'8 7.7
2016-Jan-29 01:32N 33°42' W 118°21'11 8.7
2016-Jan-29 00:14N 33°52' W 118°27'3 4.1
2016-Jan-28 23:33N 33°55' W 118°27'0 0.2
2016-Jan-28 22:32N 33°54' W 118°27'5 4.8
2016-Jan-28 21:33N 33°51' W 118°24'5 4.0
2016-Jan-28 20:20N 33°55' W 118°27'0 0.0
2016-Jan-28 19:33N 33°55' W 118°27'0 0.0
2016-Jan-28 18:33N 33°55' W 118°27'0 0.0
2016-Jan-28 17:29N 33°55' W 118°27'0 0.0
2016-Jan-28 16:28N 33°55' W 118°27'0 0.0
2016-Jan-28 09:30N 33°55' W 118°27'5 5.2
2016-Jan-28 08:33N 33°50' W 118°24'5 3.8
2016-Jan-28 07:19N 33°54' W 118°27'0 0.2
2016-Jan-28 05:33N 33°55' W 118°27'0 0.0
2016-Jan-28 04:33N 33°55' W 118°27'0 0.0
2016-Jan-28 01:15N 33°55' W 118°27'0 0.0
2016-Jan-28 00:33N 33°55' W 118°27'0 0.0
2016-Jan-27 23:32N 33°55' W 118°27'0 0.0
2016-Jan-27 22:31N 33°55' W 118°27'0 0.0
2016-Jan-27 21:33N 33°55' W 118°27'  

Dump ship's entire track history